Robijn — PBEJ — position and weather

sailwx.info

Track history (hours):
 
Tides and Currents Weather Stations Pressure Air Temp Water Temp Dewpoint Dewpoint Depression Visibility Wind Speed Wind Dir Waves Ship Positions

Robijn

Last reported at 2017-May-26 18:28 UTC. Time now 2017-May-26 18:41 UTC.
Position N 46°09' W 001°13'.

Length 90 m; draft 5.4 m.

Type: Cargo ship. MMSI: 245909000.

Date/timePositionNaut miles runAvg speedWind from/ knotsBaromVisibWave heightAir tempDewpointWater temp
2017-May-26 18:28N 46°09' W 001°13'0 0.0
2017-May-26 17:58N 46°09' W 001°13'0 0.0
2017-May-26 17:28N 46°09' W 001°13'0 0.0
2017-May-26 16:58N 46°09' W 001°13'0 0.0
2017-May-26 16:28N 46°09' W 001°13'0 0.2
2017-May-26 16:00N 46°09' W 001°13'2 3.3
2017-May-26 15:30N 46°08' W 001°15'3 6.3
2017-May-26 15:00N 46°05' W 001°15'1 1.4
2017-May-26 14:31N 46°05' W 001°14'0 0.2
2017-May-26 13:28N 46°05' W 001°14'0 0.0
2017-May-26 12:58N 46°05' W 001°14'0 0.0
2017-May-26 12:28N 46°05' W 001°14'0 0.0
2017-May-26 11:58N 46°05' W 001°14'0 0.0
2017-May-26 11:28N 46°05' W 001°14'0 0.0
2017-May-26 10:58N 46°05' W 001°14'0 0.1
2017-May-26 10:25N 46°05' W 001°14'1 2.5
2017-May-26 10:00N 46°05' W 001°16'4 8.2
2017-May-26 09:30N 46°07' W 001°21'4 7.9
2017-May-26 09:00N 46°08' W 001°27'4 7.8
2017-May-26 08:30N 46°09' W 001°32'4 7.6
2017-May-26 08:00N 46°10' W 001°37'4 8.3
2017-May-26 07:30N 46°12' W 001°42'4 8.8
2017-May-26 07:00N 46°15' W 001°47'4 8.7
2017-May-26 06:30N 46°18' W 001°52'4 8.7
2017-May-26 06:00N 46°21' W 001°57'4 8.6
2017-May-26 05:30N 46°23' W 002°02'4 9.0
2017-May-26 05:00N 46°26' W 002°07'5 9.2
2017-May-26 04:30N 46°29' W 002°12'5 9.3
2017-May-26 04:00N 46°32' W 002°17'5 9.5
2017-May-26 03:30N 46°35' W 002°23'5 9.4
2017-May-26 02:59N 46°37' W 002°29'4 9.2
2017-May-26 02:30N 46°40' W 002°34'22 9.2
2017-May-26 00:06N 46°53' W 002°60'4 9.2
2017-May-25 23:38N 46°56' W 003°05'2 9.0
2017-May-25 23:27N 46°57' W 003°07'4 9.0
2017-May-25 23:00N 46°59' W 003°12'4 8.9
2017-May-25 22:30N 47°02' W 003°17'5 9.0
2017-May-25 22:00N 47°04' W 003°22'4 9.0
2017-May-25 21:30N 47°07' W 003°28'4 8.9
2017-May-25 21:00N 47°10' W 003°33'4 8.8
2017-May-25 20:30N 47°12' W 003°38'4 8.9
2017-May-25 20:00N 47°15' W 003°43'5 9.1
2017-May-25 19:30N 47°18' W 003°48'5 9.3
2017-May-25 19:00N 47°21' W 003°53'5 9.2
2017-May-25 18:25N 47°24' W 003°59'29 9.4
2017-May-25 15:22N 47°42' W 004°33'3 9.2
2017-May-25 15:00N 47°45' W 004°37'9 8.9
2017-May-25 14:00N 47°50' W 004°47'4 8.5
2017-May-25 13:30N 47°53' W 004°52'4 8.0
2017-May-25 13:00N 47°55' W 004°57'4 7.1
2017-May-25 12:30N 47°57' W 005°01'3 6.7
2017-May-25 12:00N 47°59' W 005°05'3 6.8
2017-May-25 11:31N 48°01' W 005°09'4 7.5
2017-May-25 11:00N 48°04' W 005°13'4 8.5
2017-May-25 10:30N 48°06' W 005°18'5 9.2
2017-May-25 09:59N 48°10' W 005°24'5 9.1
2017-May-25 09:24N 48°14' W 005°29'1810.0
2017-May-25 07:38N 48°28' W 005°45'36 7.2
2017-May-25 02:36N 49°02' W 005°26'1 7.6
2017-May-25 02:30N 49°02' W 005°24'4 7.7
2017-May-25 01:57N 49°04' W 005°19'11 8.4
2017-May-25 00:37N 49°10' W 005°04'1 9.1
2017-May-25 00:30N 49°10' W 005°03'6 9.6
2017-May-24 23:52N 49°13' W 004°55'810.2
2017-May-24 23:03N 49°17' W 004°44'810.9
2017-May-24 22:21N 49°21' W 004°33'911.1
2017-May-24 21:35N 49°25' W 004°22'410.9
2017-May-24 21:13N 49°27' W 004°16'210.7
2017-May-24 21:00N 49°28' W 004°13'510.4
2017-May-24 20:29N 49°31' W 004°06'7 9.9
2017-May-24 19:48N 49°34' W 003°57'7 9.0
2017-May-24 18:58N 49°38' W 003°47'7 8.0
2017-May-24 18:08N 49°41' W 003°38'1 7.5
2017-May-24 17:58N 49°42' W 003°36'3 7.3
2017-May-24 17:30N 49°43' W 003°32'4 7.2
2017-May-24 17:00N 49°45' W 003°27'3 7.2
2017-May-24 16:30N 49°47' W 003°22'4 7.5
2017-May-24 16:00N 49°49' W 003°17'4 7.8
2017-May-24 15:30N 49°51' W 003°12'5 8.4
2017-May-24 14:58N 49°53' W 003°06'4 9.3
2017-May-24 14:30N 49°55' W 003°00'1010.2
2017-May-24 13:30N 49°60' W 002°46'911.5
2017-May-24 12:45N 50°02' W 002°33'312.2
2017-May-24 12:29N 50°03' W 002°28'612.4
2017-May-24 11:59N 50°05' W 002°18'612.5
2017-May-24 11:30N 50°06' W 002°09'812.0
2017-May-24 10:48N 50°08' W 001°57'311.1
2017-May-24 10:30N 50°09' W 001°52'710.2
2017-May-24 09:50N 50°10' W 001°41'5 9.0
2017-May-24 09:16N 50°12' W 001°34'3 8.2
2017-May-24 08:55N 50°13' W 001°29'3 7.5
2017-May-24 08:30N 50°14' W 001°25'3 6.8
2017-May-24 08:00N 50°15' W 001°20'3 6.1
2017-May-24 07:30N 50°16' W 001°15'9 5.7
2017-May-24 05:59N 50°19' W 001°02'22 8.1
2017-May-24 03:12N 50°26' W 000°29'210.2
2017-May-24 03:00N 50°27' W 000°26'510.4
2017-May-24 02:30N 50°28' W 000°19'510.7
2017-May-24 02:00N 50°30' W 000°10'510.9
2017-May-24 01:30N 50°31' W 000°02'510.8
2017-May-24 01:00N 50°33' E 000°06'510.7
2017-May-24 00:30N 50°34' E 000°14'510.4
2017-May-24 00:00N 50°36' E 000°22'510.0
2017-May-23 23:30N 50°38' E 000°29'5 9.6
2017-May-23 23:00N 50°39' E 000°36'5 9.1
2017-May-23 22:30N 50°42' E 000°42'4 8.5
2017-May-23 22:00N 50°44' E 000°47'4 8.2
2017-May-23 21:29N 50°47' E 000°53'12 8.0
2017-May-23 19:59N 50°54' E 001°08'4 8.4
2017-May-23 19:30N 50°57' E 001°13'5 9.4
2017-May-23 19:00N 50°60' E 001°19'510.9
2017-May-23 18:30N 51°03' E 001°26'612.3
2017-May-23 18:00N 51°07' E 001°33'612.7
2017-May-23 17:30N 51°11' E 001°40'611.8
2017-May-23 17:00N 51°16' E 001°46'611.8
2017-May-23 16:30N 51°21' E 001°51'611.2
2017-May-23 16:00N 51°26' E 001°55'510.5
2017-May-23 15:30N 51°30' E 001°60'5 9.9
2017-May-23 15:00N 51°34' E 002°05'5 9.6
2017-May-23 14:30N 51°37' E 002°11'9 9.1
2017-May-23 13:28N 51°44' E 002°21'54 9.2
2017-May-23 07:39N 52°26' E 003°16'311.0
2017-May-23 07:23N 52°29' E 003°19'511.1
2017-May-23 06:56N 52°33' E 003°24'611.2
2017-May-23 06:26N 52°37' E 003°30'511.1
2017-May-23 05:57N 52°41' E 003°36'1310.6
2017-May-23 04:42N 52°51' E 003°50'210.0
2017-May-23 04:29N 52°53' E 003°52'5 9.7
2017-May-23 04:00N 52°57' E 003°57'5 9.4
2017-May-23 03:30N 52°60' E 004°02'5 9.2
2017-May-23 02:55N 53°03' E 004°09'4 8.9
2017-May-23 02:29N 53°06' E 004°14'4 8.5
2017-May-23 02:00N 53°09' E 004°19'4 8.2
2017-May-23 01:30N 53°12' E 004°24'12 8.7
2017-May-23 00:06N 53°22' E 004°33'1 9.6
2017-May-22 23:59N 53°23' E 004°34'510.0
2017-May-22 23:30N 53°27' E 004°38'710.8
2017-May-22 22:53N 53°30' E 004°48'511.2
2017-May-22 22:26N 53°32' E 004°56'611.4
2017-May-22 21:56N 53°34' E 005°05'511.3
2017-May-22 21:29N 53°36' E 005°13'12210.1
2017-May-22 09:24N 53°58' E 008°37'4 9.8
2017-May-22 08:59N 53°55' E 008°41'4 9.0
2017-May-22 08:31N 53°51' E 008°46'4 8.1
2017-May-22 08:01N 53°51' E 008°52'4 8.3
2017-May-22 07:30N 53°51' E 008°59'4 8.0
2017-May-22 07:00N 53°53' E 009°06'2 3.9
2017-May-22 06:30N 53°54' E 009°09'1 2.4
2017-May-22 06:00N 53°54' E 009°10'4 8.5
2017-May-22 05:31N 53°58' E 009°15'4 8.4
2017-May-22 05:00N 54°01' E 009°18'4 8.6
2017-May-22 04:30N 54°06' E 009°20'11 7.7
2017-May-22 03:02N 54°13' E 009°35'45 6.2
2017-May-21 19:41N 54°35' E 010°43'2 9.8
2017-May-21 19:29N 54°35' E 010°46'5 9.8
2017-May-21 19:00N 54°35' E 010°54'5 9.9
2017-May-21 18:30N 54°36' E 011°03'5 9.6
2017-May-21 18:00N 54°36' E 011°11'5 9.9
2017-May-21 17:30N 54°34' E 011°18'5 9.9
2017-May-21 17:00N 54°32' E 011°26'5 9.8
2017-May-21 16:30N 54°30' E 011°34'17 9.5
2017-May-21 14:46N 54°27' E 012°02'3 9.5
2017-May-21 14:30N 54°27' E 012°06'9 9.2
2017-May-21 13:30N 54°35' E 012°14'5 9.4
2017-May-21 13:00N 54°38' E 012°19'39 9.8
2017-May-21 09:05N 54°55' E 013°20'110.1
2017-May-21 09:00N 54°55' E 013°21'510.0
2017-May-21 08:28N 54°57' E 013°30'510.1
2017-May-21 08:00N 54°59' E 013°37'510.0
2017-May-21 07:29N 55°01' E 013°46'510.0
2017-May-21 06:58N 55°03' E 013°54'510.0
2017-May-21 06:30N 55°05' E 014°02'5 9.6
2017-May-21 06:00N 55°08' E 014°08'510.0
2017-May-21 05:29N 55°12' E 014°13'510.3
2017-May-21 05:00N 55°16' E 014°19'510.2
2017-May-21 04:30N 55°20' E 014°24'5 9.9
2017-May-21 04:00N 55°23' E 014°30'5 9.8
2017-May-21 03:30N 55°27' E 014°36'510.0
2017-May-21 03:00N 55°29' E 014°44'510.0
2017-May-21 02:30N 55°32' E 014°51'5 9.8
2017-May-21 02:00N 55°34' E 014°59'5 9.7
2017-May-21 01:30N 55°36' E 015°07'5 9.9
2017-May-21 01:01N 55°39' E 015°14'5 9.9
2017-May-21 00:30N 55°41' E 015°22'510.2
2017-May-21 00:00N 55°44' E 015°30'510.2
2017-May-20 23:30N 55°46' E 015°38'510.2
2017-May-20 23:00N 55°49' E 015°45'5 9.9
2017-May-20 22:30N 55°52' E 015°53'5 9.9
2017-May-20 22:00N 55°54' E 016°00'510.1
2017-May-20 21:30N 55°57' E 016°08'510.2
2017-May-20 21:00N 55°59' E 016°16'510.2
2017-May-20 20:30N 56°02' E 016°24'510.4
2017-May-20 20:00N 56°05' E 016°32'510.2
2017-May-20 19:30N 56°08' E 016°39'510.1
2017-May-20 19:00N 56°11' E 016°47'510.2
2017-May-20 18:30N 56°14' E 016°54'510.2
2017-May-20 18:00N 56°17' E 017°01'510.2
2017-May-20 17:30N 56°20' E 017°08'510.2
2017-May-20 17:00N 56°23' E 017°16'510.2
2017-May-20 16:30N 56°26' E 017°23'510.1
2017-May-20 16:00N 56°29' E 017°30'510.2
2017-May-20 15:30N 56°32' E 017°38'510.2
2017-May-20 15:00N 56°35' E 017°45'21910.1
2017-May-19 17:26N 59°16' E 022°25'14 9.9
2017-May-19 16:00N 59°21' E 022°51'5 9.9
2017-May-19 15:29N 59°23' E 023°00'5 9.9
2017-May-19 15:00N 59°25' E 023°09'10 9.9
2017-May-19 13:58N 59°28' E 023°28'4 9.8
2017-May-19 13:30N 59°30' E 023°36'5 9.7
2017-May-19 13:00N 59°32' E 023°45'610.0
2017-May-19 12:25N 59°34' E 023°55'510.0
2017-May-19 11:54N 59°36' E 024°05'6 9.8
2017-May-19 11:18N 59°38' E 024°16'4 9.6
2017-May-19 10:50N 59°40' E 024°24'3 9.8
2017-May-19 10:30N 59°41' E 024°30'9 9.9
2017-May-19 09:33N 59°44' E 024°48'1 9.9
2017-May-19 09:29N 59°44' E 024°49'5 9.7
2017-May-19 08:58N 59°44' E 024°59'7 9.9
2017-May-19 08:17N 59°44' E 025°13'310.0
2017-May-19 07:57N 59°44' E 025°19'510.0
2017-May-19 07:24N 59°44' E 025°30'810.0
2017-May-19 06:33N 59°44' E 025°47'5 9.9
2017-May-19 06:04N 59°44' E 025°57'110.0
2017-May-19 06:00N 59°44' E 025°58'6 9.9
2017-May-19 05:22N 59°44' E 026°10'4 9.9
2017-May-19 05:00N 59°44' E 026°17'710.1
2017-May-19 04:21N 59°39' E 026°26'310.0
2017-May-19 04:00N 59°36' E 026°30'5 9.0
2017-May-19 03:29N 59°32' E 026°33'75 2.2
2017-May-17 17:45N 59°36' E 024°06'3 7.6
2017-May-17 17:22N 59°35' E 024°00'3 7.6
2017-May-17 16:57N 59°34' E 023°55'4 7.5
2017-May-17 16:26N 59°32' E 023°48'3 7.9
2017-May-17 16:00N 59°31' E 023°42'4 9.0
2017-May-17 15:30N 59°29' E 023°33'4 8.9
2017-May-17 15:01N 59°28' E 023°25'21 8.3
2017-May-17 12:28N 59°20' E 022°47'4 8.2
2017-May-17 12:01N 59°18' E 022°40'4 7.5
2017-May-17 11:29N 59°17' E 022°33'3 6.5
2017-May-17 11:00N 59°16' E 022°27'5 9.1
2017-May-17 10:30N 59°14' E 022°19'5 9.3
2017-May-17 10:00N 59°12' E 022°11'5 9.3
2017-May-17 09:31N 59°10' E 022°03'11 9.1
2017-May-17 08:19N 59°05' E 021°44'19 8.7
2017-May-17 06:08N 58°59' E 021°09'9 8.8
2017-May-17 05:04N 58°57' E 020°51'1 9.0
2017-May-17 05:00N 58°57' E 020°50'5 9.3
2017-May-17 04:30N 58°56' E 020°41'510.0
2017-May-17 04:00N 58°55' E 020°32'510.1
2017-May-17 03:30N 58°54' E 020°22'510.2
2017-May-17 03:01N 58°53' E 020°12'510.1
2017-May-17 02:30N 58°52' E 020°03'510.4
2017-May-17 02:00N 58°51' E 019°53'610.4
2017-May-17 01:28N 58°50' E 019°42'510.1
2017-May-17 01:00N 58°49' E 019°33'5 9.9
2017-May-17 00:30N 58°48' E 019°24'510.0
2017-May-16 23:59N 58°47' E 019°14'510.2
2017-May-16 23:28N 58°46' E 019°04'510.3
2017-May-16 22:58N 58°45' E 018°54'510.0
2017-May-16 22:30N 58°44' E 018°46'6 9.8
2017-May-16 21:57N 58°43' E 018°35'15 9.6
2017-May-16 20:23N 58°40' E 018°07'  
Track history (hours):
 
Tides and Currents Weather Stations Pressure Air Temp Water Temp Dewpoint Dewpoint Depression Visibility Wind Speed Wind Dir Waves Ship Positions

Robijn

Last reported at 2017-May-26 18:28 UTC. Time now 2017-May-26 18:41 UTC.
Position N 46°09' W 001°13'.

Length 90 m; draft 5.4 m.

Type: Cargo ship. MMSI: 245909000.

Date/timePositionNaut miles runAvg speedWind from/ knotsBaromVisibWave heightAir tempDewpointWater temp
2017-May-26 18:28N 46°09' W 001°13'0 0.0
2017-May-26 17:58N 46°09' W 001°13'0 0.0
2017-May-26 17:28N 46°09' W 001°13'0 0.0
2017-May-26 16:58N 46°09' W 001°13'0 0.0
2017-May-26 16:28N 46°09' W 001°13'0 0.2
2017-May-26 16:00N 46°09' W 001°13'2 3.3
2017-May-26 15:30N 46°08' W 001°15'3 6.3
2017-May-26 15:00N 46°05' W 001°15'1 1.4
2017-May-26 14:31N 46°05' W 001°14'0 0.2
2017-May-26 13:28N 46°05' W 001°14'0 0.0
2017-May-26 12:58N 46°05' W 001°14'0 0.0
2017-May-26 12:28N 46°05' W 001°14'0 0.0
2017-May-26 11:58N 46°05' W 001°14'0 0.0
2017-May-26 11:28N 46°05' W 001°14'0 0.0
2017-May-26 10:58N 46°05' W 001°14'0 0.1
2017-May-26 10:25N 46°05' W 001°14'1 2.5
2017-May-26 10:00N 46°05' W 001°16'4 8.2
2017-May-26 09:30N 46°07' W 001°21'4 7.9
2017-May-26 09:00N 46°08' W 001°27'4 7.8
2017-May-26 08:30N 46°09' W 001°32'4 7.6
2017-May-26 08:00N 46°10' W 001°37'4 8.3
2017-May-26 07:30N 46°12' W 001°42'4 8.8
2017-May-26 07:00N 46°15' W 001°47'4 8.7
2017-May-26 06:30N 46°18' W 001°52'4 8.7
2017-May-26 06:00N 46°21' W 001°57'4 8.6
2017-May-26 05:30N 46°23' W 002°02'4 9.0
2017-May-26 05:00N 46°26' W 002°07'5 9.2
2017-May-26 04:30N 46°29' W 002°12'5 9.3
2017-May-26 04:00N 46°32' W 002°17'5 9.5
2017-May-26 03:30N 46°35' W 002°23'5 9.4
2017-May-26 02:59N 46°37' W 002°29'4 9.2
2017-May-26 02:30N 46°40' W 002°34'22 9.2
2017-May-26 00:06N 46°53' W 002°60'4 9.2
2017-May-25 23:38N 46°56' W 003°05'2 9.0
2017-May-25 23:27N 46°57' W 003°07'4 9.0
2017-May-25 23:00N 46°59' W 003°12'4 8.9
2017-May-25 22:30N 47°02' W 003°17'5 9.0
2017-May-25 22:00N 47°04' W 003°22'4 9.0
2017-May-25 21:30N 47°07' W 003°28'4 8.9
2017-May-25 21:00N 47°10' W 003°33'4 8.8
2017-May-25 20:30N 47°12' W 003°38'4 8.9
2017-May-25 20:00N 47°15' W 003°43'5 9.1
2017-May-25 19:30N 47°18' W 003°48'5 9.3
2017-May-25 19:00N 47°21' W 003°53'5 9.2
2017-May-25 18:25N 47°24' W 003°59'29 9.4
2017-May-25 15:22N 47°42' W 004°33'3 9.2
2017-May-25 15:00N 47°45' W 004°37'9 8.9
2017-May-25 14:00N 47°50' W 004°47'4 8.5
2017-May-25 13:30N 47°53' W 004°52'4 8.0
2017-May-25 13:00N 47°55' W 004°57'4 7.1
2017-May-25 12:30N 47°57' W 005°01'3 6.7
2017-May-25 12:00N 47°59' W 005°05'3 6.8
2017-May-25 11:31N 48°01' W 005°09'4 7.5
2017-May-25 11:00N 48°04' W 005°13'4 8.5
2017-May-25 10:30N 48°06' W 005°18'5 9.2
2017-May-25 09:59N 48°10' W 005°24'5 9.1
2017-May-25 09:24N 48°14' W 005°29'1810.0
2017-May-25 07:38N 48°28' W 005°45'36 7.2
2017-May-25 02:36N 49°02' W 005°26'1 7.6
2017-May-25 02:30N 49°02' W 005°24'4 7.7
2017-May-25 01:57N 49°04' W 005°19'11 8.4
2017-May-25 00:37N 49°10' W 005°04'1 9.1
2017-May-25 00:30N 49°10' W 005°03'6 9.6
2017-May-24 23:52N 49°13' W 004°55'810.2
2017-May-24 23:03N 49°17' W 004°44'810.9
2017-May-24 22:21N 49°21' W 004°33'911.1
2017-May-24 21:35N 49°25' W 004°22'410.9
2017-May-24 21:13N 49°27' W 004°16'210.7
2017-May-24 21:00N 49°28' W 004°13'510.4
2017-May-24 20:29N 49°31' W 004°06'7 9.9
2017-May-24 19:48N 49°34' W 003°57'7 9.0
2017-May-24 18:58N 49°38' W 003°47'7 8.0
2017-May-24 18:08N 49°41' W 003°38'1 7.5
2017-May-24 17:58N 49°42' W 003°36'3 7.3
2017-May-24 17:30N 49°43' W 003°32'4 7.2
2017-May-24 17:00N 49°45' W 003°27'3 7.2
2017-May-24 16:30N 49°47' W 003°22'4 7.5
2017-May-24 16:00N 49°49' W 003°17'4 7.8
2017-May-24 15:30N 49°51' W 003°12'5 8.4
2017-May-24 14:58N 49°53' W 003°06'4 9.3
2017-May-24 14:30N 49°55' W 003°00'1010.2
2017-May-24 13:30N 49°60' W 002°46'911.5
2017-May-24 12:45N 50°02' W 002°33'312.2
2017-May-24 12:29N 50°03' W 002°28'612.4
2017-May-24 11:59N 50°05' W 002°18'612.5
2017-May-24 11:30N 50°06' W 002°09'812.0
2017-May-24 10:48N 50°08' W 001°57'311.1
2017-May-24 10:30N 50°09' W 001°52'710.2
2017-May-24 09:50N 50°10' W 001°41'5 9.0
2017-May-24 09:16N 50°12' W 001°34'3 8.2
2017-May-24 08:55N 50°13' W 001°29'3 7.5
2017-May-24 08:30N 50°14' W 001°25'3 6.8
2017-May-24 08:00N 50°15' W 001°20'3 6.1
2017-May-24 07:30N 50°16' W 001°15'9 5.7
2017-May-24 05:59N 50°19' W 001°02'22 8.1
2017-May-24 03:12N 50°26' W 000°29'210.2
2017-May-24 03:00N 50°27' W 000°26'510.4
2017-May-24 02:30N 50°28' W 000°19'510.7
2017-May-24 02:00N 50°30' W 000°10'510.9
2017-May-24 01:30N 50°31' W 000°02'510.8
2017-May-24 01:00N 50°33' E 000°06'510.7
2017-May-24 00:30N 50°34' E 000°14'510.4
2017-May-24 00:00N 50°36' E 000°22'510.0
2017-May-23 23:30N 50°38' E 000°29'5 9.6
2017-May-23 23:00N 50°39' E 000°36'5 9.1
2017-May-23 22:30N 50°42' E 000°42'4 8.5
2017-May-23 22:00N 50°44' E 000°47'4 8.2
2017-May-23 21:29N 50°47' E 000°53'12 8.0
2017-May-23 19:59N 50°54' E 001°08'4 8.4
2017-May-23 19:30N 50°57' E 001°13'5 9.4
2017-May-23 19:00N 50°60' E 001°19'510.9
2017-May-23 18:30N 51°03' E 001°26'612.3
2017-May-23 18:00N 51°07' E 001°33'612.7
2017-May-23 17:30N 51°11' E 001°40'611.8
2017-May-23 17:00N 51°16' E 001°46'611.8
2017-May-23 16:30N 51°21' E 001°51'611.2
2017-May-23 16:00N 51°26' E 001°55'510.5
2017-May-23 15:30N 51°30' E 001°60'5 9.9
2017-May-23 15:00N 51°34' E 002°05'5 9.6
2017-May-23 14:30N 51°37' E 002°11'9 9.1
2017-May-23 13:28N 51°44' E 002°21'54 9.2
2017-May-23 07:39N 52°26' E 003°16'311.0
2017-May-23 07:23N 52°29' E 003°19'511.1
2017-May-23 06:56N 52°33' E 003°24'611.2
2017-May-23 06:26N 52°37' E 003°30'511.1
2017-May-23 05:57N 52°41' E 003°36'1310.6
2017-May-23 04:42N 52°51' E 003°50'210.0
2017-May-23 04:29N 52°53' E 003°52'5 9.7
2017-May-23 04:00N 52°57' E 003°57'5 9.4
2017-May-23 03:30N 52°60' E 004°02'5 9.2
2017-May-23 02:55N 53°03' E 004°09'4 8.9
2017-May-23 02:29N 53°06' E 004°14'4 8.5
2017-May-23 02:00N 53°09' E 004°19'4 8.2
2017-May-23 01:30N 53°12' E 004°24'12 8.7
2017-May-23 00:06N 53°22' E 004°33'1 9.6
2017-May-22 23:59N 53°23' E 004°34'510.0
2017-May-22 23:30N 53°27' E 004°38'710.8
2017-May-22 22:53N 53°30' E 004°48'511.2
2017-May-22 22:26N 53°32' E 004°56'611.4
2017-May-22 21:56N 53°34' E 005°05'511.3
2017-May-22 21:29N 53°36' E 005°13'12210.1
2017-May-22 09:24N 53°58' E 008°37'4 9.8
2017-May-22 08:59N 53°55' E 008°41'4 9.0
2017-May-22 08:31N 53°51' E 008°46'4 8.1
2017-May-22 08:01N 53°51' E 008°52'4 8.3
2017-May-22 07:30N 53°51' E 008°59'4 8.0
2017-May-22 07:00N 53°53' E 009°06'2 3.9
2017-May-22 06:30N 53°54' E 009°09'1 2.4
2017-May-22 06:00N 53°54' E 009°10'4 8.5
2017-May-22 05:31N 53°58' E 009°15'4 8.4
2017-May-22 05:00N 54°01' E 009°18'4 8.6
2017-May-22 04:30N 54°06' E 009°20'11 7.7
2017-May-22 03:02N 54°13' E 009°35'45 6.2
2017-May-21 19:41N 54°35' E 010°43'2 9.8
2017-May-21 19:29N 54°35' E 010°46'5 9.8
2017-May-21 19:00N 54°35' E 010°54'5 9.9
2017-May-21 18:30N 54°36' E 011°03'5 9.6
2017-May-21 18:00N 54°36' E 011°11'5 9.9
2017-May-21 17:30N 54°34' E 011°18'5 9.9
2017-May-21 17:00N 54°32' E 011°26'5 9.8
2017-May-21 16:30N 54°30' E 011°34'17 9.5
2017-May-21 14:46N 54°27' E 012°02'3 9.5
2017-May-21 14:30N 54°27' E 012°06'9 9.2
2017-May-21 13:30N 54°35' E 012°14'5 9.4
2017-May-21 13:00N 54°38' E 012°19'39 9.8
2017-May-21 09:05N 54°55' E 013°20'110.1
2017-May-21 09:00N 54°55' E 013°21'510.0
2017-May-21 08:28N 54°57' E 013°30'510.1
2017-May-21 08:00N 54°59' E 013°37'510.0
2017-May-21 07:29N 55°01' E 013°46'510.0
2017-May-21 06:58N 55°03' E 013°54'510.0
2017-May-21 06:30N 55°05' E 014°02'5 9.6
2017-May-21 06:00N 55°08' E 014°08'510.0
2017-May-21 05:29N 55°12' E 014°13'510.3
2017-May-21 05:00N 55°16' E 014°19'510.2
2017-May-21 04:30N 55°20' E 014°24'5 9.9
2017-May-21 04:00N 55°23' E 014°30'5 9.8
2017-May-21 03:30N 55°27' E 014°36'510.0
2017-May-21 03:00N 55°29' E 014°44'510.0
2017-May-21 02:30N 55°32' E 014°51'5 9.8
2017-May-21 02:00N 55°34' E 014°59'5 9.7
2017-May-21 01:30N 55°36' E 015°07'5 9.9
2017-May-21 01:01N 55°39' E 015°14'5 9.9
2017-May-21 00:30N 55°41' E 015°22'510.2
2017-May-21 00:00N 55°44' E 015°30'510.2
2017-May-20 23:30N 55°46' E 015°38'510.2
2017-May-20 23:00N 55°49' E 015°45'5 9.9
2017-May-20 22:30N 55°52' E 015°53'5 9.9
2017-May-20 22:00N 55°54' E 016°00'510.1
2017-May-20 21:30N 55°57' E 016°08'510.2
2017-May-20 21:00N 55°59' E 016°16'510.2
2017-May-20 20:30N 56°02' E 016°24'510.4
2017-May-20 20:00N 56°05' E 016°32'510.2
2017-May-20 19:30N 56°08' E 016°39'510.1
2017-May-20 19:00N 56°11' E 016°47'510.2
2017-May-20 18:30N 56°14' E 016°54'510.2
2017-May-20 18:00N 56°17' E 017°01'510.2
2017-May-20 17:30N 56°20' E 017°08'510.2
2017-May-20 17:00N 56°23' E 017°16'510.2
2017-May-20 16:30N 56°26' E 017°23'510.1
2017-May-20 16:00N 56°29' E 017°30'510.2
2017-May-20 15:30N 56°32' E 017°38'510.2
2017-May-20 15:00N 56°35' E 017°45'21910.1
2017-May-19 17:26N 59°16' E 022°25'14 9.9
2017-May-19 16:00N 59°21' E 022°51'5 9.9
2017-May-19 15:29N 59°23' E 023°00'5 9.9
2017-May-19 15:00N 59°25' E 023°09'10 9.9
2017-May-19 13:58N 59°28' E 023°28'4 9.8
2017-May-19 13:30N 59°30' E 023°36'5 9.7
2017-May-19 13:00N 59°32' E 023°45'610.0
2017-May-19 12:25N 59°34' E 023°55'510.0
2017-May-19 11:54N 59°36' E 024°05'6 9.8
2017-May-19 11:18N 59°38' E 024°16'4 9.6
2017-May-19 10:50N 59°40' E 024°24'3 9.8
2017-May-19 10:30N 59°41' E 024°30'9 9.9
2017-May-19 09:33N 59°44' E 024°48'1 9.9
2017-May-19 09:29N 59°44' E 024°49'5 9.7
2017-May-19 08:58N 59°44' E 024°59'7 9.9
2017-May-19 08:17N 59°44' E 025°13'310.0
2017-May-19 07:57N 59°44' E 025°19'510.0
2017-May-19 07:24N 59°44' E 025°30'810.0
2017-May-19 06:33N 59°44' E 025°47'5 9.9
2017-May-19 06:04N 59°44' E 025°57'110.0
2017-May-19 06:00N 59°44' E 025°58'6 9.9
2017-May-19 05:22N 59°44' E 026°10'4 9.9
2017-May-19 05:00N 59°44' E 026°17'710.1
2017-May-19 04:21N 59°39' E 026°26'310.0
2017-May-19 04:00N 59°36' E 026°30'5 9.0
2017-May-19 03:29N 59°32' E 026°33'75 2.2
2017-May-17 17:45N 59°36' E 024°06'3 7.6
2017-May-17 17:22N 59°35' E 024°00'3 7.6
2017-May-17 16:57N 59°34' E 023°55'4 7.5
2017-May-17 16:26N 59°32' E 023°48'3 7.9
2017-May-17 16:00N 59°31' E 023°42'4 9.0
2017-May-17 15:30N 59°29' E 023°33'4 8.9
2017-May-17 15:01N 59°28' E 023°25'21 8.3
2017-May-17 12:28N 59°20' E 022°47'4 8.2
2017-May-17 12:01N 59°18' E 022°40'4 7.5
2017-May-17 11:29N 59°17' E 022°33'3 6.5
2017-May-17 11:00N 59°16' E 022°27'5 9.1
2017-May-17 10:30N 59°14' E 022°19'5 9.3
2017-May-17 10:00N 59°12' E 022°11'5 9.3
2017-May-17 09:31N 59°10' E 022°03'11 9.1
2017-May-17 08:19N 59°05' E 021°44'19 8.7
2017-May-17 06:08N 58°59' E 021°09'9 8.8
2017-May-17 05:04N 58°57' E 020°51'1 9.0
2017-May-17 05:00N 58°57' E 020°50'5 9.3
2017-May-17 04:30N 58°56' E 020°41'510.0
2017-May-17 04:00N 58°55' E 020°32'510.1
2017-May-17 03:30N 58°54' E 020°22'510.2
2017-May-17 03:01N 58°53' E 020°12'510.1
2017-May-17 02:30N 58°52' E 020°03'510.4
2017-May-17 02:00N 58°51' E 019°53'610.4
2017-May-17 01:28N 58°50' E 019°42'510.1
2017-May-17 01:00N 58°49' E 019°33'5 9.9
2017-May-17 00:30N 58°48' E 019°24'510.0
2017-May-16 23:59N 58°47' E 019°14'510.2
2017-May-16 23:28N 58°46' E 019°04'510.3
2017-May-16 22:58N 58°45' E 018°54'510.0
2017-May-16 22:30N 58°44' E 018°46'6 9.8
2017-May-16 21:57N 58°43' E 018°35'15 9.6
2017-May-16 20:23N 58°40' E 018°07'  

Dump ship's entire track history